Rhodes, Greece
Current Conditions -  °F | °C
As of 3:20 PM on Monday 26 Jan 2015 (Local Time) from LGRP Reporting Station
Scattered Clouds Scattered Clouds  
Wind Chill: 61°   Ceiling: Unl
Heat Index: 61°   Visibility: 6mi
Dew Point: 52°   Wind: 3mph
Humidity: 72%   Direction: 190°S
Pressure: 30.03"   Gusts: NA
Location:  36.43°N, 28.22°E
Report Text: LGRP 261220Z 19003KT 9999 FEW018TCU SCT020 16/11 Q1017 NOSIG
Loading
Personal Weather Stations






























Interactive Weather Map New forecast layout! Learn more

10-Day Weather Forecast

Advertisements
Track Severe Weather on mobile